sensor_id;sensor_type;location;lat;lon;timestamp;P1;durP1;ratioP1;P2;durP2;ratioP2
50631;SDS011;49583;45.590;-122.498;2024-03-29T00:03:06;0.60;;;0.50;;
50631;SDS011;49583;45.590;-122.498;2024-03-29T00:05:20;0.50;;;0.50;;
50631;SDS011;49583;45.590;-122.498;2024-03-29T00:07:32;1.00;;;0.50;;
50631;SDS011;49583;45.590;-122.498;2024-03-29T00:09:44;0.70;;;0.50;;
50631;SDS011;49583;45.590;-122.498;2024-03-29T00:11:56;1.30;;;0.50;;
50631;SDS011;49583;45.590;-122.498;2024-03-29T00:14:09;1.10;;;0.60;;
50631;SDS011;49583;45.590;-122.498;2024-03-29T00:16:21;1.20;;;0.50;;
50631;SDS011;49583;45.590;-122.498;2024-03-29T00:18:34;1.80;;;0.70;;
50631;SDS011;49583;45.590;-122.498;2024-03-29T00:20:47;1.30;;;0.60;;
50631;SDS011;49583;45.590;-122.498;2024-03-29T00:22:59;1.20;;;0.50;;
50631;SDS011;49583;45.590;-122.498;2024-03-29T00:25:11;1.40;;;0.50;;
50631;SDS011;49583;45.590;-122.498;2024-03-29T00:27:23;0.50;;;0.50;;
50631;SDS011;49583;45.590;-122.498;2024-03-29T00:29:36;0.40;;;0.40;;
50631;SDS011;49583;45.590;-122.498;2024-03-29T00:31:50;0.80;;;0.50;;
50631;SDS011;49583;45.590;-122.498;2024-03-29T00:34:02;1.20;;;0.60;;
50631;SDS011;49583;45.590;-122.498;2024-03-29T00:36:14;2.40;;;0.50;;
50631;SDS011;49583;45.590;-122.498;2024-03-29T00:38:26;0.60;;;0.60;;
50631;SDS011;49583;45.590;-122.498;2024-03-29T00:42:48;0.60;;;0.60;;
50631;SDS011;49583;45.590;-122.498;2024-03-29T00:45:00;2.60;;;0.70;;
50631;SDS011;49583;45.590;-122.498;2024-03-29T00:47:23;0.90;;;0.60;;
50631;SDS011;49583;45.590;-122.498;2024-03-29T00:49:35;1.30;;;0.60;;
50631;SDS011;49583;45.590;-122.498;2024-03-29T00:51:48;2.20;;;0.70;;
50631;SDS011;49583;45.590;-122.498;2024-03-29T00:54:00;1.30;;;0.50;;
50631;SDS011;49583;45.590;-122.498;2024-03-29T00:56:12;0.50;;;0.50;;
50631;SDS011;49583;45.590;-122.498;2024-03-29T00:58:24;0.80;;;0.50;;
50631;SDS011;49583;45.590;-122.498;2024-03-29T01:00:38;1.50;;;0.60;;
50631;SDS011;49583;45.590;-122.498;2024-03-29T01:02:51;1.80;;;0.50;;
50631;SDS011;49583;45.590;-122.498;2024-03-29T01:07:13;2.10;;;0.70;;
50631;SDS011;49583;45.590;-122.498;2024-03-29T01:09:25;0.60;;;0.50;;
50631;SDS011;49583;45.590;-122.498;2024-03-29T01:11:37;1.40;;;0.50;;
50631;SDS011;49583;45.590;-122.498;2024-03-29T01:13:51;0.70;;;0.70;;
50631;SDS011;49583;45.590;-122.498;2024-03-29T01:16:04;2.10;;;0.70;;
50631;SDS011;49583;45.590;-122.498;2024-03-29T01:18:19;1.00;;;0.50;;
50631;SDS011;49583;45.590;-122.498;2024-03-29T01:20:32;1.50;;;0.60;;
50631;SDS011;49583;45.590;-122.498;2024-03-29T01:22:45;0.50;;;0.50;;
50631;SDS011;49583;45.590;-122.498;2024-03-29T01:24:59;0.70;;;0.60;;
50631;SDS011;49583;45.590;-122.498;2024-03-29T01:27:15;2.20;;;0.70;;
50631;SDS011;49583;45.590;-122.498;2024-03-29T01:29:30;3.50;;;0.80;;
50631;SDS011;49583;45.590;-122.498;2024-03-29T01:31:43;1.30;;;1.00;;
50631;SDS011;49583;45.590;-122.498;2024-03-29T01:33:56;2.20;;;0.70;;
50631;SDS011;49583;45.590;-122.498;2024-03-29T01:36:10;0.60;;;0.60;;
50631;SDS011;49583;45.590;-122.498;2024-03-29T01:38:24;1.20;;;0.70;;
50631;SDS011;49583;45.590;-122.498;2024-03-29T01:40:37;0.60;;;0.50;;
50631;SDS011;49583;45.590;-122.498;2024-03-29T01:42:55;2.10;;;0.70;;
50631;SDS011;49583;45.590;-122.498;2024-03-29T01:45:09;0.90;;;0.50;;
50631;SDS011;49583;45.590;-122.498;2024-03-29T01:47:29;3.50;;;0.60;;
50631;SDS011;49583;45.590;-122.498;2024-03-29T01:49:42;0.70;;;0.50;;
50631;SDS011;49583;45.590;-122.498;2024-03-29T01:51:57;1.30;;;0.60;;
50631;SDS011;49583;45.590;-122.498;2024-03-29T01:54:12;0.50;;;0.50;;
50631;SDS011;49583;45.590;-122.498;2024-03-29T01:56:29;0.70;;;0.40;;
50631;SDS011;49583;45.590;-122.498;2024-03-29T01:58:41;1.00;;;0.50;;
50631;SDS011;49583;45.590;-122.498;2024-03-29T02:00:59;1.20;;;0.60;;
50631;SDS011;49583;45.590;-122.498;2024-03-29T02:03:15;1.50;;;0.80;;
50631;SDS011;49583;45.590;-122.498;2024-03-29T02:05:31;1.50;;;0.60;;
50631;SDS011;49583;45.590;-122.498;2024-03-29T02:07:47;0.60;;;0.50;;
50631;SDS011;49583;45.590;-122.498;2024-03-29T02:10:00;0.50;;;0.40;;
50631;SDS011;49583;45.590;-122.498;2024-03-29T02:12:16;1.10;;;0.70;;
50631;SDS011;49583;45.590;-122.498;2024-03-29T02:16:37;2.40;;;0.70;;
50631;SDS011;49583;45.590;-122.498;2024-03-29T02:18:50;2.60;;;0.60;;
50631;SDS011;49583;45.590;-122.498;2024-03-29T02:21:02;1.90;;;1.30;;
50631;SDS011;49583;45.590;-122.498;2024-03-29T02:23:16;1.70;;;0.90;;
50631;SDS011;49583;45.590;-122.498;2024-03-29T02:25:34;1.10;;;0.50;;
50631;SDS011;49583;45.590;-122.498;2024-03-29T02:27:47;0.70;;;0.70;;
50631;SDS011;49583;45.590;-122.498;2024-03-29T02:29:59;1.20;;;0.60;;
50631;SDS011;49583;45.590;-122.498;2024-03-29T02:32:12;0.80;;;0.50;;
50631;SDS011;49583;45.590;-122.498;2024-03-29T02:34:25;0.80;;;0.70;;
50631;SDS011;49583;45.590;-122.498;2024-03-29T02:36:38;1.50;;;0.60;;
50631;SDS011;49583;45.590;-122.498;2024-03-29T02:38:51;1.60;;;0.70;;
50631;SDS011;49583;45.590;-122.498;2024-03-29T02:41:04;0.70;;;0.50;;
50631;SDS011;49583;45.590;-122.498;2024-03-29T02:43:17;1.00;;;0.60;;
50631;SDS011;49583;45.590;-122.498;2024-03-29T02:45:30;0.80;;;0.60;;
50631;SDS011;49583;45.590;-122.498;2024-03-29T02:47:42;0.70;;;0.60;;
50631;SDS011;49583;45.590;-122.498;2024-03-29T02:49:58;2.40;;;1.00;;
50631;SDS011;49583;45.590;-122.498;2024-03-29T02:52:10;1.10;;;1.00;;
50631;SDS011;49583;45.590;-122.498;2024-03-29T02:54:23;1.10;;;0.70;;
50631;SDS011;49583;45.590;-122.498;2024-03-29T02:58:44;2.40;;;0.80;;
50631;SDS011;49583;45.590;-122.498;2024-03-29T03:00:56;0.60;;;0.60;;
50631;SDS011;49583;45.590;-122.498;2024-03-29T03:03:15;1.50;;;0.80;;
50631;SDS011;49583;45.590;-122.498;2024-03-29T03:05:29;0.70;;;0.60;;
50631;SDS011;49583;45.590;-122.498;2024-03-29T03:07:41;0.90;;;0.70;;
50631;SDS011;49583;45.590;-122.498;2024-03-29T03:10:10;0.90;;;0.90;;
50631;SDS011;49583;45.590;-122.498;2024-03-29T03:12:50;2.20;;;0.60;;
50631;SDS011;49583;45.590;-122.498;2024-03-29T03:15:02;1.00;;;0.60;;
50631;SDS011;49583;45.590;-122.498;2024-03-29T03:17:15;0.80;;;0.60;;
50631;SDS011;49583;45.590;-122.498;2024-03-29T03:19:29;0.50;;;0.50;;
50631;SDS011;49583;45.590;-122.498;2024-03-29T03:21:41;0.50;;;0.50;;
50631;SDS011;49583;45.590;-122.498;2024-03-29T03:23:54;2.80;;;0.80;;
50631;SDS011;49583;45.590;-122.498;2024-03-29T03:26:07;1.90;;;0.80;;
50631;SDS011;49583;45.590;-122.498;2024-03-29T03:28:19;1.40;;;0.90;;
50631;SDS011;49583;45.590;-122.498;2024-03-29T03:30:31;0.90;;;0.60;;
50631;SDS011;49583;45.590;-122.498;2024-03-29T03:32:46;1.20;;;0.70;;
50631;SDS011;49583;45.590;-122.498;2024-03-29T03:34:59;1.00;;;0.90;;
50631;SDS011;49583;45.590;-122.498;2024-03-29T03:37:12;1.70;;;0.80;;
50631;SDS011;49583;45.590;-122.498;2024-03-29T03:39:25;0.90;;;0.90;;
50631;SDS011;49583;45.590;-122.498;2024-03-29T03:41:37;3.80;;;0.80;;
50631;SDS011;49583;45.590;-122.498;2024-03-29T03:43:52;3.10;;;0.80;;
50631;SDS011;49583;45.590;-122.498;2024-03-29T03:46:04;1.60;;;1.00;;
50631;SDS011;49583;45.590;-122.498;2024-03-29T03:48:16;3.30;;;1.10;;
50631;SDS011;49583;45.590;-122.498;2024-03-29T03:50:29;2.40;;;0.70;;
50631;SDS011;49583;45.590;-122.498;2024-03-29T03:52:42;3.40;;;0.90;;
50631;SDS011;49583;45.590;-122.498;2024-03-29T03:54:54;1.40;;;1.00;;
50631;SDS011;49583;45.590;-122.498;2024-03-29T03:57:07;2.70;;;0.90;;
50631;SDS011;49583;45.590;-122.498;2024-03-29T03:59:19;1.30;;;0.90;;
50631;SDS011;49583;45.590;-122.498;2024-03-29T04:01:31;1.40;;;0.90;;
50631;SDS011;49583;45.590;-122.498;2024-03-29T04:03:43;1.50;;;0.90;;
50631;SDS011;49583;45.590;-122.498;2024-03-29T04:05:55;3.30;;;0.80;;
50631;SDS011;49583;45.590;-122.498;2024-03-29T04:08:12;2.40;;;1.10;;
50631;SDS011;49583;45.590;-122.498;2024-03-29T04:10:26;1.20;;;0.80;;
50631;SDS011;49583;45.590;-122.498;2024-03-29T04:12:38;2.70;;;1.00;;
50631;SDS011;49583;45.590;-122.498;2024-03-29T04:14:51;4.30;;;0.90;;
50631;SDS011;49583;45.590;-122.498;2024-03-29T04:17:04;2.80;;;1.00;;
50631;SDS011;49583;45.590;-122.498;2024-03-29T04:19:19;2.70;;;1.10;;
50631;SDS011;49583;45.590;-122.498;2024-03-29T04:21:31;4.00;;;0.70;;
50631;SDS011;49583;45.590;-122.498;2024-03-29T04:23:44;2.10;;;0.70;;
50631;SDS011;49583;45.590;-122.498;2024-03-29T04:25:58;2.00;;;0.80;;
50631;SDS011;49583;45.590;-122.498;2024-03-29T04:28:12;1.70;;;0.70;;
50631;SDS011;49583;45.590;-122.498;2024-03-29T04:30:24;2.20;;;1.00;;
50631;SDS011;49583;45.590;-122.498;2024-03-29T04:32:36;1.50;;;0.80;;
50631;SDS011;49583;45.590;-122.498;2024-03-29T04:34:49;0.60;;;0.60;;
50631;SDS011;49583;45.590;-122.498;2024-03-29T04:37:01;1.80;;;0.80;;
50631;SDS011;49583;45.590;-122.498;2024-03-29T04:39:15;1.40;;;0.70;;
50631;SDS011;49583;45.590;-122.498;2024-03-29T04:41:27;0.50;;;0.50;;
50631;SDS011;49583;45.590;-122.498;2024-03-29T04:43:42;3.60;;;1.10;;
50631;SDS011;49583;45.590;-122.498;2024-03-29T04:46:03;3.00;;;0.60;;
50631;SDS011;49583;45.590;-122.498;2024-03-29T04:48:18;1.10;;;0.90;;
50631;SDS011;49583;45.590;-122.498;2024-03-29T04:50:30;1.60;;;0.70;;
50631;SDS011;49583;45.590;-122.498;2024-03-29T04:52:43;2.60;;;0.90;;
50631;SDS011;49583;45.590;-122.498;2024-03-29T04:54:55;2.00;;;1.00;;
50631;SDS011;49583;45.590;-122.498;2024-03-29T04:57:08;2.80;;;0.90;;
50631;SDS011;49583;45.590;-122.498;2024-03-29T04:59:21;1.50;;;0.80;;
50631;SDS011;49583;45.590;-122.498;2024-03-29T05:01:34;1.80;;;0.80;;
50631;SDS011;49583;45.590;-122.498;2024-03-29T05:03:46;1.60;;;0.80;;
50631;SDS011;49583;45.590;-122.498;2024-03-29T05:05:58;3.70;;;1.00;;
50631;SDS011;49583;45.590;-122.498;2024-03-29T05:08:11;0.80;;;0.70;;
50631;SDS011;49583;45.590;-122.498;2024-03-29T05:10:25;1.80;;;0.80;;
50631;SDS011;49583;45.590;-122.498;2024-03-29T05:12:37;1.50;;;0.90;;
50631;SDS011;49583;45.590;-122.498;2024-03-29T05:16:58;2.60;;;0.80;;
50631;SDS011;49583;45.590;-122.498;2024-03-29T05:21:21;2.90;;;0.70;;
50631;SDS011;49583;45.590;-122.498;2024-03-29T05:23:34;2.20;;;1.20;;
50631;SDS011;49583;45.590;-122.498;2024-03-29T05:25:46;2.50;;;0.70;;
50631;SDS011;49583;45.590;-122.498;2024-03-29T05:27:59;1.70;;;0.70;;
50631;SDS011;49583;45.590;-122.498;2024-03-29T05:30:13;3.00;;;1.00;;
50631;SDS011;49583;45.590;-122.498;2024-03-29T05:32:26;1.90;;;1.00;;
50631;SDS011;49583;45.590;-122.498;2024-03-29T05:34:38;2.00;;;0.90;;
50631;SDS011;49583;45.590;-122.498;2024-03-29T05:36:51;6.60;;;1.20;;
50631;SDS011;49583;45.590;-122.498;2024-03-29T05:39:03;1.70;;;1.20;;
50631;SDS011;49583;45.590;-122.498;2024-03-29T05:41:15;1.70;;;0.90;;
50631;SDS011;49583;45.590;-122.498;2024-03-29T05:43:28;1.10;;;0.90;;
50631;SDS011;49583;45.590;-122.498;2024-03-29T05:45:40;4.20;;;0.90;;
50631;SDS011;49583;45.590;-122.498;2024-03-29T05:47:54;5.60;;;1.00;;
50631;SDS011;49583;45.590;-122.498;2024-03-29T05:50:08;2.50;;;0.90;;
50631;SDS011;49583;45.590;-122.498;2024-03-29T05:52:21;2.10;;;0.90;;
50631;SDS011;49583;45.590;-122.498;2024-03-29T05:54:34;1.60;;;0.90;;
50631;SDS011;49583;45.590;-122.498;2024-03-29T05:56:46;1.50;;;0.70;;
50631;SDS011;49583;45.590;-122.498;2024-03-29T05:58:58;5.00;;;1.10;;
50631;SDS011;49583;45.590;-122.498;2024-03-29T06:01:11;4.80;;;0.90;;
50631;SDS011;49583;45.590;-122.498;2024-03-29T06:03:23;1.00;;;0.70;;
50631;SDS011;49583;45.590;-122.498;2024-03-29T06:05:36;2.10;;;0.80;;
50631;SDS011;49583;45.590;-122.498;2024-03-29T06:07:48;3.90;;;1.10;;
50631;SDS011;49583;45.590;-122.498;2024-03-29T06:10:01;3.20;;;1.00;;
50631;SDS011;49583;45.590;-122.498;2024-03-29T06:12:15;3.00;;;0.90;;
50631;SDS011;49583;45.590;-122.498;2024-03-29T06:14:28;2.90;;;1.00;;
50631;SDS011;49583;45.590;-122.498;2024-03-29T06:16:56;3.10;;;1.00;;
50631;SDS011;49583;45.590;-122.498;2024-03-29T06:19:25;1.00;;;0.80;;
50631;SDS011;49583;45.590;-122.498;2024-03-29T06:21:37;4.50;;;1.00;;
50631;SDS011;49583;45.590;-122.498;2024-03-29T06:23:50;2.00;;;0.90;;
50631;SDS011;49583;45.590;-122.498;2024-03-29T06:26:02;4.70;;;1.10;;
50631;SDS011;49583;45.590;-122.498;2024-03-29T06:28:14;1.60;;;0.80;;
50631;SDS011;49583;45.590;-122.498;2024-03-29T06:30:28;2.80;;;1.00;;
50631;SDS011;49583;45.590;-122.498;2024-03-29T06:32:41;2.90;;;0.80;;
50631;SDS011;49583;45.590;-122.498;2024-03-29T06:34:55;3.80;;;1.10;;
50631;SDS011;49583;45.590;-122.498;2024-03-29T06:37:07;0.90;;;0.80;;
50631;SDS011;49583;45.590;-122.498;2024-03-29T06:39:19;1.60;;;0.80;;
50631;SDS011;49583;45.590;-122.498;2024-03-29T06:41:33;0.70;;;0.70;;
50631;SDS011;49583;45.590;-122.498;2024-03-29T06:43:46;2.30;;;0.90;;
50631;SDS011;49583;45.590;-122.498;2024-03-29T06:45:58;5.10;;;1.00;;
50631;SDS011;49583;45.590;-122.498;2024-03-29T06:48:12;2.80;;;0.90;;
50631;SDS011;49583;45.590;-122.498;2024-03-29T06:50:25;1.70;;;1.10;;
50631;SDS011;49583;45.590;-122.498;2024-03-29T06:52:37;2.50;;;1.20;;
50631;SDS011;49583;45.590;-122.498;2024-03-29T06:54:50;2.00;;;0.90;;
50631;SDS011;49583;45.590;-122.498;2024-03-29T06:57:03;3.10;;;0.80;;
50631;SDS011;49583;45.590;-122.498;2024-03-29T06:59:17;3.20;;;0.80;;
50631;SDS011;49583;45.590;-122.498;2024-03-29T07:01:29;3.60;;;1.00;;
50631;SDS011;49583;45.590;-122.498;2024-03-29T07:03:43;1.00;;;0.70;;
50631;SDS011;49583;45.590;-122.498;2024-03-29T07:05:59;2.80;;;0.80;;
50631;SDS011;49583;45.590;-122.498;2024-03-29T07:08:13;2.40;;;1.00;;
50631;SDS011;49583;45.590;-122.498;2024-03-29T07:10:25;3.00;;;0.90;;
50631;SDS011;49583;45.590;-122.498;2024-03-29T07:12:38;2.70;;;1.00;;
50631;SDS011;49583;45.590;-122.498;2024-03-29T07:14:51;2.60;;;0.90;;
50631;SDS011;49583;45.590;-122.498;2024-03-29T07:17:03;4.40;;;1.00;;
50631;SDS011;49583;45.590;-122.498;2024-03-29T07:19:16;2.60;;;0.90;;
50631;SDS011;49583;45.590;-122.498;2024-03-29T07:21:29;2.60;;;0.80;;
50631;SDS011;49583;45.590;-122.498;2024-03-29T07:23:42;5.10;;;1.00;;
50631;SDS011;49583;45.590;-122.498;2024-03-29T07:28:11;2.50;;;0.80;;
50631;SDS011;49583;45.590;-122.498;2024-03-29T07:30:23;2.10;;;0.90;;
50631;SDS011;49583;45.590;-122.498;2024-03-29T07:32:35;5.60;;;1.00;;
50631;SDS011;49583;45.590;-122.498;2024-03-29T07:34:48;4.40;;;1.50;;
50631;SDS011;49583;45.590;-122.498;2024-03-29T07:37:03;3.60;;;0.90;;
50631;SDS011;49583;45.590;-122.498;2024-03-29T07:39:19;2.10;;;0.90;;
50631;SDS011;49583;45.590;-122.498;2024-03-29T07:41:32;3.60;;;0.90;;
50631;SDS011;49583;45.590;-122.498;2024-03-29T07:43:52;3.00;;;0.90;;
50631;SDS011;49583;45.590;-122.498;2024-03-29T07:46:07;4.70;;;1.30;;
50631;SDS011;49583;45.590;-122.498;2024-03-29T07:48:20;3.90;;;1.20;;
50631;SDS011;49583;45.590;-122.498;2024-03-29T07:50:32;2.00;;;1.10;;
50631;SDS011;49583;45.590;-122.498;2024-03-29T07:52:46;3.70;;;0.70;;
50631;SDS011;49583;45.590;-122.498;2024-03-29T07:54:59;2.70;;;1.00;;
50631;SDS011;49583;45.590;-122.498;2024-03-29T07:57:14;4.90;;;1.00;;
50631;SDS011;49583;45.590;-122.498;2024-03-29T07:59:26;2.10;;;0.80;;
50631;SDS011;49583;45.590;-122.498;2024-03-29T08:12:16;2.50;;;0.90;;
50631;SDS011;49583;45.590;-122.498;2024-03-29T08:14:30;2.80;;;0.90;;
50631;SDS011;49583;45.590;-122.498;2024-03-29T08:16:43;2.00;;;0.80;;
50631;SDS011;49583;45.590;-122.498;2024-03-29T08:18:55;1.80;;;0.90;;
50631;SDS011;49583;45.590;-122.498;2024-03-29T08:21:07;6.20;;;1.20;;
50631;SDS011;49583;45.590;-122.498;2024-03-29T08:23:20;3.90;;;1.30;;
50631;SDS011;49583;45.590;-122.498;2024-03-29T08:25:32;3.60;;;1.50;;
50631;SDS011;49583;45.590;-122.498;2024-03-29T08:27:44;6.30;;;1.40;;
50631;SDS011;49583;45.590;-122.498;2024-03-29T08:29:57;3.00;;;1.00;;
50631;SDS011;49583;45.590;-122.498;2024-03-29T08:32:09;5.90;;;1.50;;
50631;SDS011;49583;45.590;-122.498;2024-03-29T08:34:22;4.50;;;1.40;;
50631;SDS011;49583;45.590;-122.498;2024-03-29T08:36:35;2.00;;;0.90;;
50631;SDS011;49583;45.590;-122.498;2024-03-29T08:40:57;3.10;;;1.20;;
50631;SDS011;49583;45.590;-122.498;2024-03-29T08:45:19;3.20;;;1.20;;
50631;SDS011;49583;45.590;-122.498;2024-03-29T08:47:31;4.40;;;1.30;;
50631;SDS011;49583;45.590;-122.498;2024-03-29T08:49:43;4.00;;;1.10;;
50631;SDS011;49583;45.590;-122.498;2024-03-29T08:54:06;4.30;;;1.60;;
50631;SDS011;49583;45.590;-122.498;2024-03-29T08:58:28;3.00;;;1.00;;
50631;SDS011;49583;45.590;-122.498;2024-03-29T09:00:40;1.90;;;1.30;;
50631;SDS011;49583;45.590;-122.498;2024-03-29T09:02:54;4.70;;;1.40;;
50631;SDS011;49583;45.590;-122.498;2024-03-29T09:05:07;2.90;;;1.10;;
50631;SDS011;49583;45.590;-122.498;2024-03-29T09:07:20;2.90;;;1.10;;
50631;SDS011;49583;45.590;-122.498;2024-03-29T09:09:33;2.30;;;1.00;;
50631;SDS011;49583;45.590;-122.498;2024-03-29T09:11:48;4.10;;;1.30;;
50631;SDS011;49583;45.590;-122.498;2024-03-29T09:14:02;3.70;;;1.20;;
50631;SDS011;49583;45.590;-122.498;2024-03-29T09:16:16;3.20;;;1.20;;
50631;SDS011;49583;45.590;-122.498;2024-03-29T09:18:29;6.00;;;1.20;;
50631;SDS011;49583;45.590;-122.498;2024-03-29T09:20:42;3.90;;;1.30;;
50631;SDS011;49583;45.590;-122.498;2024-03-29T09:22:54;6.20;;;1.90;;
50631;SDS011;49583;45.590;-122.498;2024-03-29T09:25:07;4.80;;;1.20;;
50631;SDS011;49583;45.590;-122.498;2024-03-29T09:27:22;3.20;;;1.20;;
50631;SDS011;49583;45.590;-122.498;2024-03-29T09:29:34;4.30;;;1.30;;
50631;SDS011;49583;45.590;-122.498;2024-03-29T09:31:46;4.60;;;1.70;;
50631;SDS011;49583;45.590;-122.498;2024-03-29T09:33:58;8.90;;;2.70;;
50631;SDS011;49583;45.590;-122.498;2024-03-29T09:36:10;7.20;;;1.90;;
50631;SDS011;49583;45.590;-122.498;2024-03-29T09:38:23;4.30;;;1.50;;
50631;SDS011;49583;45.590;-122.498;2024-03-29T09:40:35;3.20;;;1.00;;
50631;SDS011;49583;45.590;-122.498;2024-03-29T09:42:48;4.50;;;1.30;;
50631;SDS011;49583;45.590;-122.498;2024-03-29T09:45:00;4.50;;;1.20;;
50631;SDS011;49583;45.590;-122.498;2024-03-29T09:47:14;6.70;;;1.40;;
50631;SDS011;49583;45.590;-122.498;2024-03-29T09:49:28;3.80;;;1.60;;
50631;SDS011;49583;45.590;-122.498;2024-03-29T09:51:43;2.70;;;1.00;;
50631;SDS011;49583;45.590;-122.498;2024-03-29T09:53:57;5.90;;;1.30;;
50631;SDS011;49583;45.590;-122.498;2024-03-29T09:56:11;3.00;;;1.00;;
50631;SDS011;49583;45.590;-122.498;2024-03-29T09:58:24;4.80;;;1.50;;
50631;SDS011;49583;45.590;-122.498;2024-03-29T10:00:36;3.20;;;1.60;;
50631;SDS011;49583;45.590;-122.498;2024-03-29T10:02:49;3.00;;;1.60;;
50631;SDS011;49583;45.590;-122.498;2024-03-29T10:05:05;2.20;;;1.40;;
50631;SDS011;49583;45.590;-122.498;2024-03-29T10:07:20;5.10;;;1.50;;
50631;SDS011;49583;45.590;-122.498;2024-03-29T10:09:34;4.10;;;1.50;;
50631;SDS011;49583;45.590;-122.498;2024-03-29T10:11:48;6.80;;;1.40;;
50631;SDS011;49583;45.590;-122.498;2024-03-29T10:14:02;4.80;;;1.90;;
50631;SDS011;49583;45.590;-122.498;2024-03-29T10:16:14;3.70;;;1.60;;
50631;SDS011;49583;45.590;-122.498;2024-03-29T10:18:28;4.00;;;1.40;;
50631;SDS011;49583;45.590;-122.498;2024-03-29T10:20:41;6.90;;;1.80;;
50631;SDS011;49583;45.590;-122.498;2024-03-29T10:22:53;5.40;;;1.60;;
50631;SDS011;49583;45.590;-122.498;2024-03-29T10:25:09;6.90;;;1.40;;
50631;SDS011;49583;45.590;-122.498;2024-03-29T10:27:23;4.60;;;1.60;;
50631;SDS011;49583;45.590;-122.498;2024-03-29T10:29:37;7.30;;;1.20;;
50631;SDS011;49583;45.590;-122.498;2024-03-29T10:34:01;6.00;;;1.20;;
50631;SDS011;49583;45.590;-122.498;2024-03-29T10:36:16;1.70;;;1.00;;
50631;SDS011;49583;45.590;-122.498;2024-03-29T10:38:28;7.90;;;1.90;;
50631;SDS011;49583;45.590;-122.498;2024-03-29T10:40:41;4.70;;;1.60;;
50631;SDS011;49583;45.590;-122.498;2024-03-29T10:42:54;6.50;;;1.20;;
50631;SDS011;49583;45.590;-122.498;2024-03-29T10:45:11;3.80;;;1.30;;
50631;SDS011;49583;45.590;-122.498;2024-03-29T10:47:23;3.60;;;1.10;;
50631;SDS011;49583;45.590;-122.498;2024-03-29T10:49:38;8.50;;;1.50;;
50631;SDS011;49583;45.590;-122.498;2024-03-29T10:51:53;5.60;;;1.40;;
50631;SDS011;49583;45.590;-122.498;2024-03-29T10:54:10;3.50;;;1.10;;
50631;SDS011;49583;45.590;-122.498;2024-03-29T10:56:24;3.80;;;1.20;;
50631;SDS011;49583;45.590;-122.498;2024-03-29T10:58:37;3.10;;;1.20;;
50631;SDS011;49583;45.590;-122.498;2024-03-29T11:00:57;2.80;;;1.40;;
50631;SDS011;49583;45.590;-122.498;2024-03-29T11:03:12;2.70;;;1.20;;
50631;SDS011;49583;45.590;-122.498;2024-03-29T11:05:28;1.70;;;1.30;;
50631;SDS011;49583;45.590;-122.498;2024-03-29T11:07:42;4.70;;;1.30;;
50631;SDS011;49583;45.590;-122.498;2024-03-29T11:09:55;2.10;;;1.20;;
50631;SDS011;49583;45.590;-122.498;2024-03-29T11:12:10;3.20;;;1.50;;
50631;SDS011;49583;45.590;-122.498;2024-03-29T11:14:26;4.00;;;1.50;;
50631;SDS011;49583;45.590;-122.498;2024-03-29T11:16:45;5.30;;;1.40;;
50631;SDS011;49583;45.590;-122.498;2024-03-29T11:19:02;7.00;;;1.60;;
50631;SDS011;49583;45.590;-122.498;2024-03-29T11:21:14;3.10;;;1.30;;
50631;SDS011;49583;45.590;-122.498;2024-03-29T11:23:27;1.80;;;1.40;;
50631;SDS011;49583;45.590;-122.498;2024-03-29T11:25:41;4.00;;;1.20;;
50631;SDS011;49583;45.590;-122.498;2024-03-29T11:27:54;3.00;;;1.40;;
50631;SDS011;49583;45.590;-122.498;2024-03-29T11:30:18;4.10;;;1.70;;
50631;SDS011;49583;45.590;-122.498;2024-03-29T11:32:37;7.70;;;1.70;;
50631;SDS011;49583;45.590;-122.498;2024-03-29T11:34:50;3.60;;;1.40;;
50631;SDS011;49583;45.590;-122.498;2024-03-29T11:37:09;3.10;;;1.20;;
50631;SDS011;49583;45.590;-122.498;2024-03-29T11:39:25;6.50;;;1.80;;
50631;SDS011;49583;45.590;-122.498;2024-03-29T11:41:37;3.10;;;1.40;;
50631;SDS011;49583;45.590;-122.498;2024-03-29T11:43:58;4.60;;;1.20;;
50631;SDS011;49583;45.590;-122.498;2024-03-29T11:46:10;3.90;;;1.50;;
50631;SDS011;49583;45.590;-122.498;2024-03-29T11:48:25;2.80;;;1.40;;
50631;SDS011;49583;45.590;-122.498;2024-03-29T11:50:38;3.60;;;1.70;;
50631;SDS011;49583;45.590;-122.498;2024-03-29T11:52:51;3.00;;;1.40;;
50631;SDS011;49583;45.590;-122.498;2024-03-29T11:55:03;6.00;;;1.70;;
50631;SDS011;49583;45.590;-122.498;2024-03-29T11:57:16;4.60;;;1.70;;
50631;SDS011;49583;45.590;-122.498;2024-03-29T11:59:30;2.70;;;1.40;;
50631;SDS011;49583;45.590;-122.498;2024-03-29T12:01:44;8.00;;;1.60;;
50631;SDS011;49583;45.590;-122.498;2024-03-29T12:03:59;4.50;;;1.60;;
50631;SDS011;49583;45.590;-122.498;2024-03-29T12:06:11;6.00;;;1.50;;
50631;SDS011;49583;45.590;-122.498;2024-03-29T12:08:25;2.30;;;1.20;;
50631;SDS011;49583;45.590;-122.498;2024-03-29T12:10:38;3.40;;;1.40;;
50631;SDS011;49583;45.590;-122.498;2024-03-29T12:15:00;5.10;;;1.40;;
50631;SDS011;49583;45.590;-122.498;2024-03-29T12:17:13;3.40;;;1.50;;
50631;SDS011;49583;45.590;-122.498;2024-03-29T12:19:25;5.50;;;1.60;;
50631;SDS011;49583;45.590;-122.498;2024-03-29T12:21:39;6.00;;;1.40;;
50631;SDS011;49583;45.590;-122.498;2024-03-29T12:23:51;2.50;;;1.50;;
50631;SDS011;49583;45.590;-122.498;2024-03-29T12:26:04;4.70;;;1.60;;
50631;SDS011;49583;45.590;-122.498;2024-03-29T12:28:19;5.20;;;1.60;;
50631;SDS011;49583;45.590;-122.498;2024-03-29T12:30:31;3.80;;;1.40;;
50631;SDS011;49583;45.590;-122.498;2024-03-29T12:32:44;4.30;;;1.10;;
50631;SDS011;49583;45.590;-122.498;2024-03-29T12:34:56;5.50;;;1.50;;
50631;SDS011;49583;45.590;-122.498;2024-03-29T12:37:20;4.70;;;1.30;;
50631;SDS011;49583;45.590;-122.498;2024-03-29T12:39:36;5.30;;;1.40;;
50631;SDS011;49583;45.590;-122.498;2024-03-29T12:41:50;3.50;;;1.50;;
50631;SDS011;49583;45.590;-122.498;2024-03-29T12:44:06;5.90;;;1.60;;
50631;SDS011;49583;45.590;-122.498;2024-03-29T12:46:18;1.90;;;1.40;;
50631;SDS011;49583;45.590;-122.498;2024-03-29T12:48:31;6.80;;;1.40;;
50631;SDS011;49583;45.590;-122.498;2024-03-29T12:50:45;3.30;;;1.40;;
50631;SDS011;49583;45.590;-122.498;2024-03-29T12:52:58;2.50;;;1.60;;
50631;SDS011;49583;45.590;-122.498;2024-03-29T12:55:11;5.30;;;1.70;;
50631;SDS011;49583;45.590;-122.498;2024-03-29T12:57:26;5.50;;;1.80;;
50631;SDS011;49583;45.590;-122.498;2024-03-29T12:59:40;5.60;;;2.90;;
50631;SDS011;49583;45.590;-122.498;2024-03-29T13:01:54;6.10;;;1.90;;
50631;SDS011;49583;45.590;-122.498;2024-03-29T13:04:07;3.30;;;1.70;;
50631;SDS011;49583;45.590;-122.498;2024-03-29T13:06:19;4.10;;;1.60;;
50631;SDS011;49583;45.590;-122.498;2024-03-29T13:10:42;3.40;;;1.40;;
50631;SDS011;49583;45.590;-122.498;2024-03-29T13:12:54;4.20;;;1.40;;
50631;SDS011;49583;45.590;-122.498;2024-03-29T13:15:14;3.10;;;1.60;;
50631;SDS011;49583;45.590;-122.498;2024-03-29T13:17:27;7.60;;;1.50;;
50631;SDS011;49583;45.590;-122.498;2024-03-29T13:19:40;2.60;;;1.20;;
50631;SDS011;49583;45.590;-122.498;2024-03-29T13:21:52;3.50;;;1.70;;
50631;SDS011;49583;45.590;-122.498;2024-03-29T13:24:07;2.10;;;1.30;;
50631;SDS011;49583;45.590;-122.498;2024-03-29T13:26:19;4.30;;;1.60;;
50631;SDS011;49583;45.590;-122.498;2024-03-29T13:28:32;3.40;;;1.60;;
50631;SDS011;49583;45.590;-122.498;2024-03-29T13:30:44;8.30;;;2.80;;
50631;SDS011;49583;45.590;-122.498;2024-03-29T13:32:58;5.40;;;1.90;;